createdAt,value
2022-08-27T00:00:02.363Z,11.80
2022-08-27T00:01:02.145Z,11.80
2022-08-27T00:02:03.622Z,11.00
2022-08-27T00:03:03.671Z,11.00
2022-08-27T00:04:03.459Z,11.00
2022-08-27T00:05:03.517Z,11.00
2022-08-27T00:06:03.455Z,11.00
2022-08-27T00:07:02.508Z,9.90
2022-08-27T00:08:02.907Z,9.90
2022-08-27T00:09:03.004Z,9.90
2022-08-27T00:10:02.586Z,9.90
2022-08-27T00:11:02.691Z,9.90
2022-08-27T00:12:02.653Z,10.10
2022-08-27T00:13:02.589Z,10.10
2022-08-27T00:14:02.652Z,10.10
2022-08-27T00:15:02.631Z,10.10
2022-08-27T00:16:03.288Z,10.10
2022-08-27T00:17:03.632Z,12.10
2022-08-27T00:18:03.736Z,12.10
2022-08-27T00:19:03.311Z,12.10
2022-08-27T00:20:03.273Z,12.10
2022-08-27T00:21:03.252Z,12.10
2022-08-27T00:22:03.457Z,10.30
2022-08-27T00:23:03.347Z,10.30
2022-08-27T00:24:03.462Z,10.30
2022-08-27T00:25:03.388Z,10.30
2022-08-27T00:26:03.248Z,10.30
2022-08-27T00:27:03.041Z,13.60
2022-08-27T00:28:03.121Z,13.60
2022-08-27T00:29:02.994Z,13.60
2022-08-27T00:30:03.227Z,13.60
2022-08-27T00:31:03.281Z,13.60
2022-08-27T00:32:03.792Z,11.10
2022-08-27T00:33:03.170Z,11.10
2022-08-27T00:34:03.229Z,11.10
2022-08-27T00:35:03.392Z,11.10
2022-08-27T00:36:03.837Z,11.10
2022-08-27T00:37:02.932Z,12.10
2022-08-27T00:38:02.613Z,12.10
2022-08-27T00:39:02.434Z,12.10
2022-08-27T00:40:03.068Z,12.10
2022-08-27T00:41:02.885Z,12.10
2022-08-27T00:42:02.837Z,10.40
2022-08-27T00:43:03.067Z,10.40
2022-08-27T00:44:02.829Z,10.40
2022-08-27T00:45:02.755Z,10.40
2022-08-27T00:46:02.852Z,10.40
2022-08-27T00:47:03.447Z,11.00
2022-08-27T00:48:03.493Z,11.00
2022-08-27T00:49:03.697Z,11.00
2022-08-27T00:50:03.634Z,11.00
2022-08-27T00:51:03.935Z,11.00
2022-08-27T00:52:02.750Z,12.70
2022-08-27T00:53:02.722Z,12.70
2022-08-27T00:54:02.811Z,12.70
2022-08-27T00:55:02.985Z,12.70
2022-08-27T00:56:02.927Z,12.70
2022-08-27T00:57:02.711Z,14.00
2022-08-27T00:58:03.186Z,14.00
2022-08-27T00:59:03.180Z,14.00
2022-08-27T01:00:03.173Z,14.00
2022-08-27T01:01:02.743Z,14.00
2022-08-27T01:02:02.491Z,13.30
2022-08-27T01:03:02.267Z,13.30
2022-08-27T01:04:02.908Z,13.30
2022-08-27T01:05:02.419Z,13.30
2022-08-27T01:06:02.503Z,13.30
2022-08-27T01:07:03.221Z,13.60
2022-08-27T01:08:02.986Z,13.60
2022-08-27T01:09:03.092Z,13.60
2022-08-27T01:10:03.204Z,13.60
2022-08-27T01:11:03.179Z,13.60
2022-08-27T01:12:02.459Z,14.10
2022-08-27T01:13:02.489Z,14.10
2022-08-27T01:14:02.650Z,14.10
2022-08-27T01:15:02.317Z,14.10
2022-08-27T01:16:02.294Z,14.10
2022-08-27T01:17:02.972Z,15.70
2022-08-27T01:18:02.928Z,15.70
2022-08-27T01:19:03.020Z,15.70
2022-08-27T01:20:02.852Z,15.70
2022-08-27T01:21:03.132Z,15.70
2022-08-27T01:22:02.714Z,13.30
2022-08-27T01:23:02.696Z,13.30
2022-08-27T01:24:02.734Z,13.30
2022-08-27T01:25:02.661Z,13.30
2022-08-27T01:26:02.546Z,13.30
2022-08-27T01:27:03.164Z,14.10
2022-08-27T01:28:03.015Z,14.10
2022-08-27T01:29:03.132Z,14.10
2022-08-27T01:30:03.167Z,14.10
2022-08-27T01:31:03.162Z,14.10
2022-08-27T01:32:02.716Z,12.80
2022-08-27T01:33:02.334Z,12.80
2022-08-27T01:34:02.357Z,12.80
2022-08-27T01:35:02.931Z,12.80
2022-08-27T01:36:02.495Z,12.80
2022-08-27T01:37:02.911Z,13.00
2022-08-27T01:38:03.066Z,13.00
2022-08-27T01:39:02.454Z,13.00
2022-08-27T01:40:03.047Z,13.00
2022-08-27T01:41:03.004Z,13.00
2022-08-27T01:42:03.471Z,14.30
2022-08-27T01:43:03.495Z,14.30
2022-08-27T01:44:03.525Z,14.30
2022-08-27T01:45:05.738Z,14.30
2022-08-27T01:46:02.998Z,14.30
2022-08-27T01:47:02.783Z,15.70
2022-08-27T01:48:03.146Z,15.70
2022-08-27T01:49:02.853Z,15.70
2022-08-27T01:50:02.472Z,15.70
2022-08-27T01:51:02.469Z,15.70
2022-08-27T01:52:03.019Z,14.50
2022-08-27T01:53:03.023Z,14.50
2022-08-27T01:54:03.050Z,14.50
2022-08-27T01:55:03.086Z,14.50
2022-08-27T01:56:02.683Z,14.50
2022-08-27T01:57:03.245Z,12.00
2022-08-27T01:58:03.367Z,12.00
2022-08-27T01:59:03.322Z,12.00
2022-08-27T02:00:03.409Z,12.00
2022-08-27T02:01:03.100Z,12.00
2022-08-27T02:02:02.869Z,11.60
2022-08-27T02:03:02.684Z,11.60
2022-08-27T02:04:02.756Z,11.60
2022-08-27T02:05:02.295Z,11.60
2022-08-27T02:06:02.722Z,11.60
2022-08-27T02:07:03.284Z,15.30
2022-08-27T02:08:03.485Z,15.30
2022-08-27T02:09:03.334Z,15.30
2022-08-27T02:10:03.181Z,15.30
2022-08-27T02:11:03.118Z,15.30
2022-08-27T02:12:03.673Z,11.80
2022-08-27T02:13:03.634Z,11.80
2022-08-27T02:14:03.607Z,11.80
2022-08-27T02:15:03.503Z,11.80
2022-08-27T02:16:03.565Z,11.80
2022-08-27T02:17:03.263Z,13.60
2022-08-27T02:18:03.344Z,13.60
2022-08-27T02:19:03.166Z,13.60
2022-08-27T02:20:03.054Z,13.60
2022-08-27T02:21:02.999Z,13.60
2022-08-27T02:22:03.100Z,15.00
2022-08-27T02:23:03.093Z,15.00
2022-08-27T02:24:03.573Z,15.00
2022-08-27T02:25:03.445Z,15.00
2022-08-27T02:26:03.310Z,15.00
2022-08-27T02:27:02.911Z,14.30
2022-08-27T02:28:02.593Z,14.30
2022-08-27T02:29:02.558Z,14.30
2022-08-27T02:30:02.572Z,14.30
2022-08-27T02:31:02.643Z,14.30
2022-08-27T02:32:02.740Z,13.30
2022-08-27T02:33:02.777Z,13.30
2022-08-27T02:34:02.812Z,13.30
2022-08-27T02:35:03.362Z,13.30
2022-08-27T02:36:03.157Z,13.30
2022-08-27T02:37:03.568Z,12.50
2022-08-27T02:38:03.653Z,12.50
2022-08-27T02:39:03.786Z,12.50
2022-08-27T02:40:03.838Z,12.50
2022-08-27T02:41:03.649Z,12.50
2022-08-27T02:42:02.726Z,13.70
2022-08-27T02:43:02.705Z,13.70
2022-08-27T02:44:02.764Z,13.70
2022-08-27T02:45:03.007Z,13.70
2022-08-27T02:46:03.082Z,13.70
2022-08-27T02:47:03.335Z,13.70
2022-08-27T02:48:03.530Z,13.70
2022-08-27T02:49:03.533Z,13.70
2022-08-27T02:50:03.591Z,13.70
2022-08-27T02:51:03.506Z,13.70
2022-08-27T02:52:03.560Z,14.90
2022-08-27T02:53:03.504Z,14.90
2022-08-27T02:54:03.992Z,14.90
2022-08-27T02:55:04.052Z,14.90
2022-08-27T02:56:03.829Z,14.90
2022-08-27T02:57:02.850Z,12.30
2022-08-27T02:58:03.000Z,12.30
2022-08-27T02:59:03.238Z,12.30
2022-08-27T03:00:02.908Z,12.30
2022-08-27T03:01:03.012Z,12.30
2022-08-27T03:02:02.167Z,12.40
2022-08-27T03:03:02.508Z,12.40
2022-08-27T03:04:02.511Z,12.40
2022-08-27T03:05:02.205Z,12.40
2022-08-27T03:06:02.014Z,12.40
2022-08-27T03:07:02.598Z,17.00
2022-08-27T03:08:03.222Z,17.00
2022-08-27T03:09:03.126Z,17.00
2022-08-27T03:10:02.678Z,17.00
2022-08-27T03:11:02.678Z,17.00
2022-08-27T03:12:02.720Z,15.50
2022-08-27T03:13:02.755Z,15.50
2022-08-27T03:14:02.647Z,15.50
2022-08-27T03:15:02.676Z,15.50
2022-08-27T03:16:02.406Z,15.50
2022-08-27T03:17:02.207Z,13.60
2022-08-27T03:18:02.214Z,13.60
2022-08-27T03:19:02.014Z,13.60
2022-08-27T03:20:02.407Z,13.60
2022-08-27T03:21:02.453Z,13.60
2022-08-27T03:22:02.670Z,15.00
2022-08-27T03:23:02.658Z,15.00
2022-08-27T03:24:09.484Z,15.00
2022-08-27T03:25:02.593Z,15.00
2022-08-27T03:26:02.451Z,15.00
2022-08-27T03:27:03.079Z,13.90
2022-08-27T03:28:03.551Z,13.90
2022-08-27T03:29:02.931Z,13.90
2022-08-27T03:30:04.034Z,13.90
2022-08-27T03:31:02.955Z,13.90
2022-08-27T03:32:02.798Z,12.30
2022-08-27T03:33:02.861Z,12.30
2022-08-27T03:34:02.602Z,12.30
2022-08-27T03:35:02.979Z,12.30
2022-08-27T03:36:02.889Z,12.30
2022-08-27T03:37:02.171Z,13.70
2022-08-27T03:38:02.081Z,13.70
2022-08-27T03:39:02.346Z,13.70
2022-08-27T03:40:02.652Z,13.70
2022-08-27T03:41:02.023Z,13.70
2022-08-27T03:42:02.367Z,16.40
2022-08-27T03:43:02.940Z,16.40
2022-08-27T03:44:02.627Z,16.40
2022-08-27T03:45:02.737Z,16.40
2022-08-27T03:46:02.690Z,16.40
2022-08-27T03:47:02.418Z,14.00
2022-08-27T03:48:02.126Z,14.00
2022-08-27T03:49:02.088Z,14.00
2022-08-27T03:50:02.076Z,14.00
2022-08-27T03:51:02.562Z,14.00
2022-08-27T03:52:02.652Z,14.40
2022-08-27T03:53:02.692Z,14.40
2022-08-27T03:54:02.533Z,14.40
2022-08-27T03:55:02.537Z,14.40
2022-08-27T03:56:02.324Z,14.40
2022-08-27T03:57:03.352Z,17.10
2022-08-27T03:58:03.475Z,17.10
2022-08-27T03:59:03.347Z,17.10
2022-08-27T04:00:03.392Z,17.10
2022-08-27T04:01:03.041Z,17.10
2022-08-27T04:02:02.913Z,17.70
2022-08-27T04:03:02.944Z,17.70
2022-08-27T04:04:03.010Z,17.70
2022-08-27T04:05:02.835Z,17.70
2022-08-27T04:06:02.781Z,17.70
2022-08-27T04:07:03.364Z,19.10
2022-08-27T04:08:03.414Z,19.10
2022-08-27T04:09:03.546Z,19.10
2022-08-27T04:10:03.157Z,19.10
2022-08-27T04:11:03.556Z,19.10
2022-08-27T04:12:03.151Z,18.60
2022-08-27T04:13:03.465Z,18.60
2022-08-27T04:14:03.529Z,18.60
2022-08-27T04:15:03.546Z,18.60
2022-08-27T04:16:03.527Z,18.60
2022-08-27T04:17:03.207Z,20.90
2022-08-27T04:18:03.436Z,20.90
2022-08-27T04:19:03.195Z,20.90
2022-08-27T04:20:24.941Z,20.90
2022-08-27T04:21:02.937Z,20.90
2022-08-27T04:22:03.609Z,20.00
2022-08-27T04:23:03.309Z,20.00
2022-08-27T04:24:03.432Z,20.00
2022-08-27T04:25:03.449Z,20.00
2022-08-27T04:26:03.350Z,20.00
2022-08-27T04:27:03.010Z,21.90
2022-08-27T04:28:02.508Z,21.90
2022-08-27T04:29:02.739Z,21.90
2022-08-27T04:30:02.769Z,21.90
2022-08-27T04:31:02.961Z,21.90
2022-08-27T04:32:03.358Z,22.30
2022-08-27T04:33:03.377Z,22.30
2022-08-27T04:34:02.939Z,22.30
2022-08-27T04:35:03.070Z,22.30
2022-08-27T04:36:03.377Z,22.30
2022-08-27T04:37:02.528Z,22.40
2022-08-27T04:38:02.552Z,22.40
2022-08-27T04:39:02.677Z,22.40
2022-08-27T04:40:02.863Z,22.40
2022-08-27T04:41:02.811Z,22.40
2022-08-27T04:42:03.449Z,22.40
2022-08-27T04:43:02.927Z,22.40
2022-08-27T04:44:03.484Z,22.40
2022-08-27T04:45:03.296Z,22.40
2022-08-27T04:46:03.499Z,22.40
2022-08-27T04:47:02.704Z,26.80
2022-08-27T04:48:03.095Z,26.80
2022-08-27T04:49:02.680Z,26.80
2022-08-27T04:50:05.131Z,26.80
2022-08-27T04:51:02.697Z,26.80
2022-08-27T04:52:02.744Z,23.50
2022-08-27T04:53:02.722Z,23.50
2022-08-27T04:54:03.157Z,23.50
2022-08-27T04:55:03.293Z,23.50
2022-08-27T04:56:03.185Z,23.50
2022-08-27T04:57:03.136Z,29.00
2022-08-27T04:58:03.272Z,29.00
2022-08-27T04:59:03.183Z,29.00
2022-08-27T05:00:03.285Z,29.00
2022-08-27T05:01:03.563Z,29.00
2022-08-27T05:02:04.682Z,24.80
2022-08-27T05:03:01.820Z,24.80
2022-08-27T05:04:01.991Z,24.80
2022-08-27T05:05:02.160Z,24.80
2022-08-27T05:06:01.723Z,24.80
2022-08-27T05:07:02.277Z,26.30
2022-08-27T05:08:02.134Z,26.30
2022-08-27T05:09:02.244Z,26.30
2022-08-27T05:10:01.750Z,26.30
2022-08-27T05:11:01.831Z,26.30
2022-08-27T05:12:01.971Z,30.30
2022-08-27T05:13:02.354Z,30.30
2022-08-27T05:14:02.395Z,30.30
2022-08-27T05:15:02.290Z,30.30
2022-08-27T05:16:02.373Z,30.30
2022-08-27T05:17:02.539Z,29.30
2022-08-27T05:18:02.498Z,29.30
2022-08-27T05:19:02.717Z,29.30
2022-08-27T05:20:02.779Z,29.30
2022-08-27T05:21:03.052Z,29.30
2022-08-27T05:22:02.043Z,33.40
2022-08-27T05:23:01.948Z,33.40
2022-08-27T05:24:02.036Z,33.40
2022-08-27T05:25:02.247Z,33.40
2022-08-27T05:26:02.418Z,33.40
2022-08-27T05:27:02.331Z,27.50
2022-08-27T05:28:02.528Z,27.50
2022-08-27T05:29:02.218Z,27.50
2022-08-27T05:30:02.200Z,27.50
2022-08-27T05:31:02.311Z,27.50
2022-08-27T05:32:02.498Z,28.20
2022-08-27T05:33:02.374Z,28.20
2022-08-27T05:34:02.927Z,28.20
2022-08-27T05:35:02.656Z,28.20
2022-08-27T05:36:02.524Z,28.20
2022-08-27T05:37:02.236Z,31.90
2022-08-27T05:38:02.144Z,31.90
2022-08-27T05:39:02.637Z,31.90
2022-08-27T05:40:02.129Z,31.90
2022-08-27T05:41:02.012Z,31.90
2022-08-27T05:42:03.047Z,29.90
2022-08-27T05:43:02.892Z,29.90
2022-08-27T05:44:13.795Z,29.90
2022-08-27T05:45:02.681Z,29.90
2022-08-27T05:46:02.936Z,29.90
2022-08-27T05:47:02.237Z,30.80
2022-08-27T05:48:02.547Z,30.80
2022-08-27T05:49:02.483Z,30.80
2022-08-27T05:50:02.218Z,30.80
2022-08-27T05:51:02.305Z,30.80
2022-08-27T05:52:02.452Z,33.10
2022-08-27T05:53:02.701Z,33.10
2022-08-27T05:54:05.622Z,33.10
2022-08-27T05:55:02.200Z,33.10
2022-08-27T05:56:02.301Z,33.10
2022-08-27T05:57:01.898Z,30.70
2022-08-27T05:58:02.183Z,30.70
2022-08-27T05:59:02.452Z,30.70
2022-08-27T06:00:02.182Z,30.70
2022-08-27T06:01:05.059Z,30.70
2022-08-27T06:02:02.379Z,32.30
2022-08-27T06:03:02.701Z,32.30
2022-08-27T06:04:02.125Z,32.30
2022-08-27T06:05:02.360Z,32.30
2022-08-27T06:06:02.523Z,32.30
2022-08-27T06:07:02.544Z,32.00
2022-08-27T06:08:02.299Z,32.00
2022-08-27T06:09:02.680Z,32.00
2022-08-27T06:10:02.319Z,32.00
2022-08-27T06:11:02.338Z,32.00
2022-08-27T06:12:02.881Z,31.60
2022-08-27T06:13:03.113Z,31.60
2022-08-27T06:14:03.050Z,31.60
2022-08-27T06:15:03.197Z,31.60
2022-08-27T06:16:03.165Z,31.60
2022-08-27T06:17:03.385Z,29.80
2022-08-27T06:18:02.900Z,29.80
2022-08-27T06:19:03.055Z,29.80
2022-08-27T06:20:03.424Z,29.80
2022-08-27T06:21:02.951Z,29.80
2022-08-27T06:22:10.407Z,29.90
2022-08-27T06:23:02.706Z,29.90
2022-08-27T06:24:02.864Z,29.90
2022-08-27T06:25:02.983Z,29.90
2022-08-27T06:26:02.862Z,29.90
2022-08-27T06:27:03.318Z,28.60
2022-08-27T06:28:03.020Z,28.60
2022-08-27T06:29:03.223Z,28.60
2022-08-27T06:30:03.472Z,28.60
2022-08-27T06:31:03.430Z,28.60
2022-08-27T06:32:02.768Z,28.70
2022-08-27T06:33:03.041Z,28.70
2022-08-27T06:34:07.260Z,28.70
2022-08-27T06:35:02.663Z,28.70
2022-08-27T06:36:02.870Z,28.70
2022-08-27T06:37:03.120Z,30.70
2022-08-27T06:38:02.671Z,30.70
2022-08-27T06:39:03.061Z,30.70
2022-08-27T06:40:02.937Z,30.70
2022-08-27T06:41:02.925Z,30.70
2022-08-27T06:42:02.280Z,30.90
2022-08-27T06:43:02.303Z,30.90
2022-08-27T06:44:02.226Z,30.90
2022-08-27T06:45:02.536Z,30.90
2022-08-27T06:46:02.975Z,30.90
2022-08-27T06:47:02.688Z,29.20
2022-08-27T06:48:02.421Z,29.20
2022-08-27T06:49:02.928Z,29.20
2022-08-27T06:50:02.440Z,29.20
2022-08-27T06:51:02.827Z,29.20
2022-08-27T06:52:03.014Z,26.60
2022-08-27T06:53:03.136Z,26.60
2022-08-27T06:54:03.085Z,26.60
2022-08-27T06:55:02.556Z,26.60
2022-08-27T06:56:02.808Z,26.60
2022-08-27T06:57:03.501Z,26.20
2022-08-27T06:58:03.259Z,26.20
2022-08-27T06:59:02.954Z,26.20
2022-08-27T07:00:03.518Z,26.20
2022-08-27T07:01:03.641Z,26.20
2022-08-27T07:02:03.629Z,24.20
2022-08-27T07:03:03.058Z,24.20
2022-08-27T07:04:03.496Z,24.20
2022-08-27T07:05:03.727Z,24.20
2022-08-27T07:06:03.180Z,24.20
2022-08-27T07:07:02.886Z,26.80
2022-08-27T07:08:03.158Z,26.80
2022-08-27T07:09:02.749Z,26.80
2022-08-27T07:10:04.216Z,26.80
2022-08-27T07:11:03.111Z,26.80
2022-08-27T07:12:02.815Z,25.60
2022-08-27T07:13:02.719Z,25.60
2022-08-27T07:14:02.738Z,25.60
2022-08-27T07:15:02.883Z,25.60
2022-08-27T07:16:03.336Z,25.60
2022-08-27T07:17:03.343Z,24.70
2022-08-27T07:18:02.727Z,24.70
2022-08-27T07:19:04.008Z,24.70
2022-08-27T07:20:03.279Z,24.70
2022-08-27T07:21:03.403Z,24.70
2022-08-27T07:22:03.965Z,24.60
2022-08-27T07:23:03.572Z,24.60
2022-08-27T07:24:03.715Z,24.60
2022-08-27T07:25:04.002Z,24.60
2022-08-27T07:26:03.386Z,24.60
2022-08-27T07:27:03.621Z,27.80
2022-08-27T07:28:03.139Z,27.80
2022-08-27T07:29:03.309Z,27.80
2022-08-27T07:30:03.609Z,27.80
2022-08-27T07:31:03.111Z,27.80
2022-08-27T07:32:03.146Z,24.20
2022-08-27T07:33:03.521Z,24.20
2022-08-27T07:34:03.566Z,24.20
2022-08-27T07:35:03.789Z,24.20
2022-08-27T07:36:03.753Z,24.20
2022-08-27T07:37:02.760Z,24.30
2022-08-27T07:38:02.925Z,24.30
2022-08-27T07:39:02.898Z,24.30
2022-08-27T07:40:03.300Z,24.30
2022-08-27T07:41:02.993Z,24.30
2022-08-27T07:42:03.252Z,24.10
2022-08-27T07:43:03.828Z,24.10
2022-08-27T07:44:03.669Z,24.10
2022-08-27T07:45:03.605Z,24.10
2022-08-27T07:46:03.561Z,24.10
2022-08-27T07:47:02.884Z,21.70
2022-08-27T07:48:03.331Z,21.70
2022-08-27T07:49:03.486Z,21.70
2022-08-27T07:50:03.425Z,21.70
2022-08-27T07:51:03.344Z,21.70
2022-08-27T07:52:03.863Z,20.10
2022-08-27T07:53:03.923Z,20.10
2022-08-27T07:54:04.100Z,20.10
2022-08-27T07:55:04.088Z,20.10
2022-08-27T07:56:04.123Z,20.10
2022-08-27T07:57:02.999Z,20.10
2022-08-27T07:58:02.911Z,20.10
2022-08-27T07:59:02.985Z,20.10
2022-08-27T08:00:03.575Z,20.10
2022-08-27T08:01:03.068Z,20.10
2022-08-27T08:02:02.436Z,16.70
2022-08-27T08:03:02.725Z,16.70
2022-08-27T08:04:02.770Z,16.70
2022-08-27T08:05:02.234Z,16.70
2022-08-27T08:06:02.375Z,16.70
2022-08-27T08:07:01.642Z,15.70
2022-08-27T08:08:02.091Z,15.70
2022-08-27T08:09:01.845Z,15.70
2022-08-27T08:10:01.588Z,15.70
2022-08-27T08:11:01.491Z,15.70
2022-08-27T08:12:02.052Z,15.80
2022-08-27T08:13:02.068Z,15.80
2022-08-27T08:14:02.258Z,15.80
2022-08-27T08:15:02.009Z,15.80
2022-08-27T08:16:02.184Z,15.80
2022-08-27T08:17:02.536Z,18.10
2022-08-27T08:18:02.274Z,18.10
2022-08-27T08:19:02.473Z,18.10
2022-08-27T08:20:19.918Z,18.10
2022-08-27T08:21:02.521Z,18.10
2022-08-27T08:22:05.587Z,18.20
2022-08-27T08:23:02.036Z,18.20
2022-08-27T08:24:02.012Z,18.20
2022-08-27T08:25:01.946Z,18.20
2022-08-27T08:26:01.452Z,18.20
2022-08-27T08:27:06.854Z,17.00
2022-08-27T08:28:01.982Z,17.00
2022-08-27T08:29:02.258Z,17.00
2022-08-27T08:30:02.029Z,17.00
2022-08-27T08:31:02.316Z,17.00
2022-08-27T08:32:02.518Z,22.10
2022-08-27T08:33:02.749Z,22.10
2022-08-27T08:34:02.696Z,22.10
2022-08-27T08:35:02.736Z,22.10
2022-08-27T08:36:02.825Z,22.10
2022-08-27T08:37:02.091Z,20.90
2022-08-27T08:38:02.305Z,20.90
2022-08-27T08:39:01.851Z,20.90
2022-08-27T08:40:02.050Z,20.90
2022-08-27T08:41:02.268Z,20.90
2022-08-27T08:42:02.436Z,17.50
2022-08-27T08:43:02.196Z,17.50
2022-08-27T08:44:05.690Z,17.50
2022-08-27T08:45:02.581Z,17.50
2022-08-27T08:46:02.651Z,17.50
2022-08-27T08:47:01.933Z,16.90
2022-08-27T08:48:02.107Z,16.90
2022-08-27T08:49:01.895Z,16.90
2022-08-27T08:50:01.955Z,16.90
2022-08-27T08:51:02.129Z,16.90
2022-08-27T08:52:02.498Z,14.50
2022-08-27T08:53:02.610Z,14.50
2022-08-27T08:54:02.645Z,14.50
2022-08-27T08:55:02.316Z,14.50
2022-08-27T08:56:02.663Z,14.50
2022-08-27T08:57:02.824Z,13.40
2022-08-27T08:58:03.116Z,13.40
2022-08-27T08:59:02.994Z,13.40
2022-08-27T09:00:02.611Z,13.40
2022-08-27T09:01:02.918Z,13.40
2022-08-27T09:02:03.074Z,12.40
2022-08-27T09:03:03.240Z,12.40
2022-08-27T09:04:03.085Z,12.40
2022-08-27T09:05:03.161Z,12.40
2022-08-27T09:06:02.783Z,12.40
2022-08-27T09:07:03.562Z,14.30
2022-08-27T09:08:28.639Z,14.30
2022-08-27T09:09:03.607Z,14.30
2022-08-27T09:10:03.748Z,14.30
2022-08-27T09:11:03.795Z,14.30
2022-08-27T09:12:03.018Z,14.00
2022-08-27T09:13:03.121Z,14.00
2022-08-27T09:14:02.899Z,14.00
2022-08-27T09:15:02.801Z,14.00
2022-08-27T09:16:02.712Z,14.00
2022-08-27T09:17:07.087Z,11.60
2022-08-27T09:18:03.641Z,11.60
2022-08-27T09:19:05.936Z,11.60
2022-08-27T09:20:03.641Z,11.60
2022-08-27T09:21:08.890Z,11.60
2022-08-27T09:22:03.632Z,11.80
2022-08-27T09:23:03.682Z,11.80
2022-08-27T09:24:03.867Z,11.80
2022-08-27T09:25:03.598Z,11.80
2022-08-27T09:26:03.638Z,11.80
2022-08-27T09:27:03.746Z,13.70
2022-08-27T09:28:03.956Z,13.70
2022-08-27T09:29:03.370Z,13.70
2022-08-27T09:30:04.145Z,13.70
2022-08-27T09:31:03.457Z,13.70
2022-08-27T09:32:03.184Z,12.90
2022-08-27T09:33:02.924Z,12.90
2022-08-27T09:34:02.960Z,12.90
2022-08-27T09:35:03.062Z,12.90
2022-08-27T09:36:03.194Z,12.90
2022-08-27T09:37:03.327Z,10.90
2022-08-27T09:38:03.154Z,10.90
2022-08-27T09:39:03.356Z,10.90
2022-08-27T09:40:02.909Z,10.90
2022-08-27T09:41:03.005Z,10.90
2022-08-27T09:42:03.942Z,10.30
2022-08-27T09:43:03.481Z,10.30
2022-08-27T09:44:03.501Z,10.30
2022-08-27T09:45:03.515Z,10.30
2022-08-27T09:46:04.197Z,10.30
2022-08-27T09:47:03.680Z,10.40
2022-08-27T09:48:03.208Z,10.40
2022-08-27T09:49:03.205Z,10.40
2022-08-27T09:50:06.657Z,10.40
2022-08-27T09:51:03.598Z,10.40
2022-08-27T09:52:03.205Z,10.30
2022-08-27T09:53:02.955Z,10.30
2022-08-27T09:54:03.100Z,10.30
2022-08-27T09:55:03.145Z,10.30
2022-08-27T09:56:03.353Z,10.30
2022-08-27T09:57:03.251Z,11.90
2022-08-27T09:58:03.184Z,11.90
2022-08-27T09:59:02.986Z,11.90
2022-08-27T10:00:03.058Z,11.90
2022-08-27T10:01:03.312Z,11.90
2022-08-27T10:02:04.394Z,10.20
2022-08-27T10:03:02.866Z,10.20
2022-08-27T10:04:03.051Z,10.20
2022-08-27T10:05:03.279Z,10.20
2022-08-27T10:06:03.273Z,10.20
2022-08-27T10:07:04.947Z,8.90
2022-08-27T10:08:03.361Z,8.90
2022-08-27T10:09:07.153Z,8.90
2022-08-27T10:10:03.414Z,8.90
2022-08-27T10:11:03.465Z,8.90
2022-08-27T10:12:03.363Z,10.50
2022-08-27T10:13:09.059Z,10.50
2022-08-27T10:14:03.125Z,10.50
2022-08-27T10:15:03.164Z,10.50
2022-08-27T10:16:03.351Z,10.50
2022-08-27T10:17:03.983Z,12.00
2022-08-27T10:18:03.909Z,12.00
2022-08-27T10:19:03.937Z,12.00
2022-08-27T10:20:03.596Z,12.00
2022-08-27T10:21:05.796Z,12.00
2022-08-27T10:22:04.301Z,9.80
2022-08-27T10:23:04.198Z,9.80
2022-08-27T10:24:04.104Z,9.80
2022-08-27T10:25:04.315Z,9.80
2022-08-27T10:26:04.199Z,9.80
2022-08-27T10:27:03.113Z,10.40
2022-08-27T10:28:03.174Z,10.40
2022-08-27T10:29:03.666Z,10.40
2022-08-27T10:30:03.327Z,10.40
2022-08-27T10:31:03.511Z,10.40
2022-08-27T10:32:03.587Z,10.60
2022-08-27T10:33:04.203Z,10.60
2022-08-27T10:34:03.708Z,10.60
2022-08-27T10:35:03.928Z,10.60
2022-08-27T10:36:03.987Z,10.60
2022-08-27T10:37:07.379Z,10.70
2022-08-27T10:38:03.261Z,10.70
2022-08-27T10:39:03.296Z,10.70
2022-08-27T10:40:03.567Z,10.70
2022-08-27T10:41:03.201Z,10.70
2022-08-27T10:42:03.456Z,12.10
2022-08-27T10:43:04.017Z,12.10
2022-08-27T10:44:03.822Z,12.10
2022-08-27T10:45:04.011Z,12.10
2022-08-27T10:46:04.176Z,12.10
2022-08-27T10:47:03.855Z,9.70
2022-08-27T10:48:03.604Z,9.70
2022-08-27T10:49:03.598Z,9.70
2022-08-27T10:50:03.097Z,9.70
2022-08-27T10:51:03.108Z,9.70
2022-08-27T10:52:07.708Z,12.50
2022-08-27T10:53:04.044Z,12.50
2022-08-27T10:54:04.012Z,12.50
2022-08-27T10:55:06.959Z,12.50
2022-08-27T10:56:03.846Z,12.50
2022-08-27T10:57:26.269Z,10.90
2022-08-27T10:58:04.299Z,10.90
2022-08-27T10:59:04.597Z,10.90
2022-08-27T11:00:04.548Z,10.90
2022-08-27T11:01:04.065Z,10.90
2022-08-27T11:02:04.524Z,13.50
2022-08-27T11:03:03.296Z,13.50
2022-08-27T11:04:03.513Z,13.50
2022-08-27T11:05:03.692Z,13.50
2022-08-27T11:06:03.397Z,13.50
2022-08-27T11:07:03.268Z,13.50
2022-08-27T11:08:03.221Z,13.50
2022-08-27T11:09:07.406Z,13.50
2022-08-27T11:10:03.178Z,13.50
2022-08-27T11:11:31.727Z,13.50
2022-08-27T11:12:18.429Z,10.50
2022-08-27T11:13:03.317Z,10.50
2022-08-27T11:14:03.252Z,10.50
2022-08-27T11:15:02.979Z,10.50
2022-08-27T11:16:03.271Z,10.50
2022-08-27T11:17:03.204Z,11.20
2022-08-27T11:18:03.145Z,11.20
2022-08-27T11:19:03.385Z,11.20
2022-08-27T11:20:02.796Z,11.20
2022-08-27T11:21:03.297Z,11.20
2022-08-27T11:22:03.319Z,11.10
2022-08-27T11:23:03.003Z,11.10
2022-08-27T11:24:03.044Z,11.10
2022-08-27T11:25:03.079Z,11.10
2022-08-27T11:26:03.055Z,11.10
2022-08-27T11:27:03.202Z,7.80
2022-08-27T11:28:02.740Z,7.80
2022-08-27T11:29:02.610Z,7.80
2022-08-27T11:30:02.822Z,7.80
2022-08-27T11:31:02.966Z,7.80
2022-08-27T11:32:03.079Z,10.60
2022-08-27T11:33:03.253Z,10.60
2022-08-27T11:34:03.283Z,10.60
2022-08-27T11:35:03.524Z,10.60
2022-08-27T11:36:03.172Z,10.60
2022-08-27T11:37:03.182Z,10.30
2022-08-27T11:38:03.634Z,10.30
2022-08-27T11:39:03.585Z,10.30
2022-08-27T11:40:04.086Z,10.30
2022-08-27T11:41:04.022Z,10.30
2022-08-27T11:42:03.792Z,8.70
2022-08-27T11:43:03.654Z,8.70
2022-08-27T11:44:03.373Z,8.70
2022-08-27T11:45:03.366Z,8.70
2022-08-27T11:46:03.062Z,8.70
2022-08-27T11:47:03.292Z,8.30
2022-08-27T11:48:04.183Z,8.30
2022-08-27T11:49:03.519Z,8.30
2022-08-27T11:50:03.701Z,8.30
2022-08-27T11:51:03.754Z,8.30
2022-08-27T11:52:03.902Z,9.90
2022-08-27T11:53:03.113Z,9.90
2022-08-27T11:54:03.248Z,9.90
2022-08-27T11:55:03.260Z,9.90
2022-08-27T11:56:03.370Z,9.90
2022-08-27T11:57:03.725Z,8.80
2022-08-27T11:58:02.664Z,8.80
2022-08-27T11:59:02.780Z,8.80
2022-08-27T12:00:03.130Z,8.80
2022-08-27T12:01:04.908Z,8.80
2022-08-27T12:02:02.633Z,11.00
2022-08-27T12:03:03.289Z,11.00
2022-08-27T12:04:02.929Z,11.00
2022-08-27T12:05:03.107Z,11.00
2022-08-27T12:06:03.247Z,11.00
2022-08-27T12:07:02.726Z,10.20
2022-08-27T12:08:03.443Z,10.20
2022-08-27T12:09:03.212Z,10.20
2022-08-27T12:10:03.287Z,10.20
2022-08-27T12:11:03.111Z,10.20
2022-08-27T12:12:03.334Z,9.40
2022-08-27T12:13:02.648Z,9.40
2022-08-27T12:14:02.721Z,9.40
2022-08-27T12:15:02.877Z,9.40
2022-08-27T12:16:03.137Z,9.40
2022-08-27T12:17:02.984Z,8.90
2022-08-27T12:18:02.108Z,8.90
2022-08-27T12:19:02.236Z,8.90
2022-08-27T12:20:02.436Z,8.90
2022-08-27T12:21:02.238Z,8.90
2022-08-27T12:22:02.330Z,9.30
2022-08-27T12:23:02.448Z,9.30
2022-08-27T12:24:02.640Z,9.30
2022-08-27T12:25:02.865Z,9.30
2022-08-27T12:26:02.812Z,9.30
2022-08-27T12:27:02.628Z,10.10
2022-08-27T12:28:02.667Z,10.10
2022-08-27T12:29:02.821Z,10.10
2022-08-27T12:30:02.953Z,10.10
2022-08-27T12:31:02.648Z,10.10
2022-08-27T12:32:02.882Z,10.30
2022-08-27T12:33:03.040Z,10.30
2022-08-27T12:34:03.184Z,10.30
2022-08-27T12:35:03.026Z,10.30
2022-08-27T12:36:03.029Z,10.30
2022-08-27T12:37:03.175Z,6.90
2022-08-27T12:38:02.263Z,6.90
2022-08-27T12:39:02.543Z,6.90
2022-08-27T12:40:02.249Z,6.90
2022-08-27T12:41:02.459Z,6.90
2022-08-27T12:42:02.270Z,7.50
2022-08-27T12:43:02.426Z,7.50
2022-08-27T12:44:02.843Z,7.50
2022-08-27T12:45:02.625Z,7.50
2022-08-27T12:46:02.590Z,7.50
2022-08-27T12:47:02.746Z,7.20
2022-08-27T12:48:02.594Z,7.20
2022-08-27T12:49:12.788Z,7.20
2022-08-27T12:50:02.653Z,7.20
2022-08-27T12:51:02.809Z,7.20
2022-08-27T12:52:02.839Z,12.40
2022-08-27T12:53:02.988Z,12.40
2022-08-27T12:54:03.149Z,12.40
2022-08-27T12:55:03.085Z,12.40